sensor_id;sensor_type;location;lat;lon;timestamp;P1;durP1;ratioP1;P2;durP2;ratioP2
60203;SDS011;46068;52.132;4.618;2022-12-18T03:07:27;69.07;;;29.98;;
60203;SDS011;46068;52.132;4.618;2022-12-18T07:45:15;36.03;;;19.45;;
60203;SDS011;46068;52.132;4.618;2022-12-18T07:47:41;35.00;;;19.83;;
60203;SDS011;46068;52.132;4.618;2022-12-18T08:16:57;36.38;;;18.80;;
60203;SDS011;46068;52.132;4.618;2022-12-18T08:19:23;32.45;;;17.85;;
60203;SDS011;46068;52.132;4.618;2022-12-18T08:21:49;32.53;;;17.50;;
60203;SDS011;46068;52.132;4.618;2022-12-18T08:24:16;31.17;;;17.80;;
60203;SDS011;46068;52.132;4.618;2022-12-18T08:26:42;31.77;;;17.80;;
60203;SDS011;46068;52.132;4.618;2022-12-18T08:29:09;27.98;;;16.20;;
60203;SDS011;46068;52.132;4.618;2022-12-18T08:31:35;30.27;;;16.58;;
60203;SDS011;46068;52.132;4.618;2022-12-18T08:34:03;29.67;;;16.40;;
60203;SDS011;46068;52.132;4.618;2022-12-18T08:36:29;28.20;;;16.35;;
60203;SDS011;46068;52.132;4.618;2022-12-18T08:38:56;26.65;;;15.98;;
60203;SDS011;46068;52.132;4.618;2022-12-18T08:41:22;26.45;;;15.73;;
60203;SDS011;46068;52.132;4.618;2022-12-18T08:43:49;28.23;;;16.30;;
60203;SDS011;46068;52.132;4.618;2022-12-18T08:46:34;27.40;;;16.02;;
60203;SDS011;46068;52.132;4.618;2022-12-18T08:49:01;26.35;;;15.90;;
60203;SDS011;46068;52.132;4.618;2022-12-18T08:51:28;25.98;;;15.35;;
60203;SDS011;46068;52.132;4.618;2022-12-18T08:53:55;26.13;;;15.73;;
60203;SDS011;46068;52.132;4.618;2022-12-18T08:56:21;27.00;;;15.30;;
60203;SDS011;46068;52.132;4.618;2022-12-18T08:58:47;27.50;;;15.50;;
60203;SDS011;46068;52.132;4.618;2022-12-18T09:01:16;29.80;;;16.50;;
60203;SDS011;46068;52.132;4.618;2022-12-18T09:03:43;26.00;;;15.45;;
60203;SDS011;46068;52.132;4.618;2022-12-18T09:06:09;28.85;;;16.10;;
60203;SDS011;46068;52.132;4.618;2022-12-18T09:08:40;27.27;;;16.20;;
60203;SDS011;46068;52.132;4.618;2022-12-18T09:11:09;26.73;;;15.88;;
60203;SDS011;46068;52.132;4.618;2022-12-18T09:13:37;28.02;;;16.10;;
60203;SDS011;46068;52.132;4.618;2022-12-18T09:16:04;30.70;;;17.13;;
60203;SDS011;46068;52.132;4.618;2022-12-18T09:18:30;29.02;;;16.13;;
60203;SDS011;46068;52.132;4.618;2022-12-18T09:20:56;28.45;;;16.40;;
60203;SDS011;46068;52.132;4.618;2022-12-18T09:23:23;28.08;;;16.33;;
60203;SDS011;46068;52.132;4.618;2022-12-18T09:25:50;25.60;;;15.68;;
60203;SDS011;46068;52.132;4.618;2022-12-18T09:28:17;28.23;;;16.52;;
60203;SDS011;46068;52.132;4.618;2022-12-18T09:30:44;29.63;;;16.98;;
60203;SDS011;46068;52.132;4.618;2022-12-18T09:33:11;29.00;;;17.02;;
60203;SDS011;46068;52.132;4.618;2022-12-18T09:35:38;27.58;;;16.67;;
60203;SDS011;46068;52.132;4.618;2022-12-18T09:38:04;28.02;;;16.20;;
60203;SDS011;46068;52.132;4.618;2022-12-18T09:40:32;29.80;;;16.98;;
60203;SDS011;46068;52.132;4.618;2022-12-18T09:43:03;27.27;;;15.63;;
60203;SDS011;46068;52.132;4.618;2022-12-18T09:45:29;26.85;;;16.15;;
60203;SDS011;46068;52.132;4.618;2022-12-18T09:50:24;26.77;;;16.27;;
60203;SDS011;46068;52.132;4.618;2022-12-18T10:58:56;24.65;;;15.15;;
60203;SDS011;46068;52.132;4.618;2022-12-18T11:35:42;25.30;;;15.20;;
60203;SDS011;46068;52.132;4.618;2022-12-18T11:38:12;25.27;;;15.00;;
60203;SDS011;46068;52.132;4.618;2022-12-18T11:40:41;25.13;;;15.30;;
60203;SDS011;46068;52.132;4.618;2022-12-18T11:43:10;24.25;;;14.95;;
60203;SDS011;46068;52.132;4.618;2022-12-18T11:45:40;24.48;;;14.27;;
60203;SDS011;46068;52.132;4.618;2022-12-18T11:48:09;24.95;;;14.70;;
60203;SDS011;46068;52.132;4.618;2022-12-18T11:50:46;25.25;;;15.10;;
60203;SDS011;46068;52.132;4.618;2022-12-18T11:53:14;28.08;;;15.32;;
60203;SDS011;46068;52.132;4.618;2022-12-18T11:55:41;26.40;;;14.87;;
60203;SDS011;46068;52.132;4.618;2022-12-18T11:58:15;25.35;;;14.80;;
60203;SDS011;46068;52.132;4.618;2022-12-18T12:00:45;27.67;;;14.88;;
60203;SDS011;46068;52.132;4.618;2022-12-18T12:03:20;24.40;;;14.57;;
60203;SDS011;46068;52.132;4.618;2022-12-18T12:05:54;24.30;;;14.20;;
60203;SDS011;46068;52.132;4.618;2022-12-18T16:56:57;28.30;;;16.53;;
60203;SDS011;46068;52.132;4.618;2022-12-18T16:59:24;28.85;;;15.75;;
60203;SDS011;46068;52.132;4.618;2022-12-18T17:01:51;29.23;;;16.63;;
60203;SDS011;46068;52.132;4.618;2022-12-18T17:04:17;29.83;;;16.55;;
60203;SDS011;46068;52.132;4.618;2022-12-18T17:06:44;28.48;;;15.80;;
